createdAt,value
2018-12-06T17:39:20.877Z,13.60
2018-12-06T17:41:50.498Z,13.50
2018-12-06T17:44:19.783Z,13.40
2018-12-06T17:46:49.346Z,13.30
2018-12-06T17:49:18.669Z,13.20
2018-12-06T17:51:49.069Z,13.20
2018-12-06T17:54:22.664Z,13.20
2018-12-06T17:56:53.586Z,13.10
2018-12-06T17:59:22.913Z,13.10
2018-12-06T18:01:52.513Z,13.00
2018-12-06T18:04:22.216Z,13.00
2018-12-06T18:06:51.840Z,13.00
2018-12-06T18:09:21.551Z,13.00
2018-12-06T18:11:52.043Z,13.00
2018-12-06T18:14:23.186Z,13.00
2018-12-06T18:16:53.101Z,12.90
2018-12-06T18:19:23.179Z,12.90
2018-12-06T18:21:53.551Z,12.90
2018-12-06T18:24:23.117Z,12.90
2018-12-06T18:26:52.987Z,12.80
2018-12-06T18:29:22.363Z,12.80
2018-12-06T18:31:52.243Z,12.80
2018-12-06T18:34:23.178Z,12.90
2018-12-06T18:36:52.766Z,12.90
2018-12-06T18:39:23.818Z,12.90
2018-12-06T18:41:54.177Z,12.90
2018-12-06T18:44:24.006Z,12.90
2018-12-06T18:46:53.576Z,12.90
2018-12-06T18:49:23.192Z,12.90
2018-12-06T18:51:52.481Z,12.90
2018-12-06T18:54:22.118Z,12.90
2018-12-06T18:56:52.212Z,12.90
2018-12-06T18:59:26.884Z,12.80
2018-12-06T19:01:56.256Z,12.80
2018-12-06T19:04:26.243Z,12.80
2018-12-06T19:06:55.524Z,12.80
2018-12-06T19:09:24.878Z,12.80
2018-12-06T19:11:54.253Z,12.80
2018-12-06T19:14:23.584Z,12.80
2018-12-06T19:16:53.092Z,12.80
2018-12-06T19:19:22.533Z,12.80
2018-12-06T19:21:51.836Z,12.80
2018-12-06T19:24:21.133Z,12.80
2018-12-06T19:26:50.376Z,12.80
2018-12-06T19:29:19.624Z,12.70
2018-12-06T19:31:48.888Z,12.80
2018-12-06T19:34:18.197Z,12.70
2018-12-06T19:36:47.525Z,12.70
2018-12-06T19:39:16.778Z,12.70
2018-12-06T19:41:46.074Z,12.70
2018-12-06T19:44:16.053Z,12.70
2018-12-06T19:46:45.692Z,12.60
2018-12-06T19:49:15.512Z,12.70
2018-12-06T19:51:46.501Z,12.60
2018-12-06T19:54:16.087Z,12.60
2018-12-06T19:56:45.695Z,12.60
2018-12-06T19:59:15.593Z,12.60
2018-12-06T20:01:46.196Z,12.60
2018-12-06T20:04:41.821Z,12.50
2018-12-06T20:07:12.317Z,12.50
2018-12-06T20:09:41.772Z,12.50
2018-12-06T20:12:12.126Z,12.40
2018-12-06T20:14:41.820Z,12.40
2018-12-06T20:17:11.885Z,12.30
2018-12-06T20:19:41.242Z,12.30
2018-12-06T20:22:10.639Z,12.30
2018-12-06T20:24:40.080Z,12.20
2018-12-06T20:27:09.572Z,12.20
2018-12-06T20:29:39.069Z,12.10
2018-12-06T20:32:14.612Z,12.10
2018-12-06T20:34:45.885Z,12.00
2018-12-06T20:37:16.503Z,12.00
2018-12-06T20:39:47.216Z,12.00
2018-12-06T20:42:19.911Z,11.90
2018-12-06T20:44:52.768Z,11.90
2018-12-06T20:47:26.129Z,11.80
2018-12-06T20:49:58.357Z,11.80
2018-12-06T20:52:30.515Z,11.70
2018-12-06T20:55:02.033Z,11.70
2018-12-06T20:57:37.318Z,11.60
2018-12-06T21:00:10.502Z,11.60
2018-12-06T21:02:41.968Z,11.60
2018-12-06T21:05:14.065Z,11.60
2018-12-06T21:07:45.382Z,11.50
2018-12-06T21:10:17.731Z,11.50
2018-12-06T21:12:49.380Z,11.40
2018-12-06T21:15:18.908Z,11.40
2018-12-06T21:17:48.283Z,11.40
2018-12-06T21:20:17.543Z,11.40
2018-12-06T21:22:46.809Z,11.30
2018-12-06T21:25:16.081Z,11.30
2018-12-06T21:27:46.153Z,11.30
2018-12-06T21:30:16.745Z,11.20
2018-12-06T21:32:46.673Z,11.20
2018-12-06T21:35:16.570Z,11.20
2018-12-06T21:37:45.838Z,11.10
2018-12-06T21:40:15.153Z,11.10
2018-12-06T21:42:44.503Z,11.10
2018-12-06T21:45:13.836Z,11.10
2018-12-06T21:47:43.087Z,11.00
2018-12-06T21:50:12.550Z,11.00
2018-12-06T21:52:41.902Z,11.00
2018-12-06T21:55:11.304Z,10.90
2018-12-06T21:57:41.137Z,10.90
2018-12-06T22:00:10.969Z,10.90
2018-12-06T22:02:40.472Z,10.90
2018-12-06T22:05:09.948Z,10.80
2018-12-06T22:07:39.448Z,10.80
2018-12-06T22:10:09.213Z,10.80
2018-12-06T22:12:38.551Z,10.80
2018-12-06T22:15:08.888Z,10.70
2018-12-06T22:17:38.204Z,10.70
2018-12-06T22:20:08.167Z,10.70
2018-12-06T22:22:38.440Z,10.70
2018-12-06T22:25:07.926Z,10.70
2018-12-06T22:27:38.331Z,10.70
2018-12-06T22:30:09.113Z,10.60
2018-12-06T22:32:38.433Z,10.60
2018-12-06T22:35:07.713Z,10.60
2018-12-06T22:37:37.903Z,10.60
2018-12-06T22:40:07.691Z,10.60
2018-12-06T22:42:37.032Z,10.60
2018-12-06T22:46:14.499Z,10.50
2018-12-06T22:48:43.788Z,10.50
2018-12-06T22:51:13.411Z,10.50
2018-12-06T22:53:42.774Z,10.40
2018-12-06T22:56:12.048Z,10.40
2018-12-06T22:58:41.304Z,10.50
2018-12-06T23:01:12.294Z,10.40
2018-12-06T23:03:42.252Z,10.40
2018-12-06T23:06:11.682Z,10.40
2018-12-06T23:08:41.008Z,10.40
2018-12-06T23:11:10.290Z,10.40
2018-12-06T23:13:39.768Z,10.40
2018-12-06T23:16:09.020Z,10.30
2018-12-06T23:18:38.325Z,10.30
2018-12-06T23:21:07.632Z,10.30
2018-12-06T23:23:36.943Z,10.30
2018-12-06T23:26:06.285Z,10.30
2018-12-06T23:28:35.585Z,10.20
2018-12-06T23:31:05.134Z,10.20
2018-12-06T23:33:34.421Z,10.20
2018-12-06T23:36:03.843Z,10.10
2018-12-06T23:38:33.109Z,10.10
2018-12-06T23:41:02.428Z,10.10
2018-12-06T23:43:31.852Z,10.10
2018-12-06T23:46:01.242Z,10.00
2018-12-06T23:48:30.964Z,10.00
2018-12-06T23:51:09.723Z,10.00
2018-12-06T23:56:39.273Z,10.00
2018-12-06T23:59:10.772Z,10.00
